YPAD Airport Information

Runway Information
Runway 05 Length 10171 ft width 148 ft
Elevation 14 ft Threshold 493 ft Heading 50
Runway 23 Length 10171 ft Width 148 ft
Elevation 20 ft Threshold 0 ft Heading 230
Runway 12 Length 5420 ft width 148 ft
Elevation 14 ft Threshold 0 ft Heading 124
Runway 30 Length 5420 ft Width 148 ft
Elevation 14 ft Threshold 0 ft Heading 304
Airport Frequencies
Type A/D Name APP/DEP Frequency 118.2 MHZ
Type ATIS Name ATIS Frequency 116.4 MHZ
Type CLD Name CLNC DEL Frequency 126.1 MHZ
Type GND Name GND Frequency 121.7 MHZ
Type TWR Name TWR Frequency 120.5 MHZ
Airport Navaids
Type VOR-DME Name Adelaide Frequency 116400 KHZ
Type NDB Name Adelaide Frequency 362 KHZ
Type NDB Name Modbury Frequency 377 KHZ
Airport Weather Information & NOTAM
ADDS - METARS form results

(0848 UTC 24 April 2018)
 
METAR text: YPAD 240830Z 22005KT 9999 FEW045 BKN330 19/13 Q1018 NOSIG
Conditions at: YPAD (ADELAIDE INTL AR, AU) observed 0830 UTC 24 April 2018
Temperature: 19.0°C (66°F)
Dewpoint: 13.0°C (55°F) [RH = 68%]
Pressure (altimeter): 30.06 inches Hg (1018.0 mb)
Winds: from the SW (220 degrees) at 6 MPH (5 knots; 2.6 m/s)
Visibility: 6 or more miles (10+ km)
Ceiling: 33000 feet AGL
Clouds: few clouds at 4500 feet AGL
broken clouds at 33000 feet AGL
Weather: no significant weather observed at this time

METAR text: YPAD 240800Z 22005KT 9999 FEW045 SCT330 19/13 Q1017 NOSIG
Conditions at: YPAD (ADELAIDE INTL AR, AU) observed 0800 UTC 24 April 2018
Temperature: 19.0°C (66°F)
Dewpoint: 13.0°C (55°F) [RH = 68%]
Pressure (altimeter): 30.03 inches Hg (1017.0 mb)
Winds: from the SW (220 degrees) at 6 MPH (5 knots; 2.6 m/s)
Visibility: 6 or more miles (10+ km)
Ceiling: at least 12,000 feet AGL
Clouds: few clouds at 4500 feet AGL
scattered clouds at 33000 feet AGL
Weather: no significant weather observed at this time